Artvin — 9HA2782 — position and weather

sailwx.info

Track history (hours):
 
Tides and Currents Weather Stations Pressure Air Temp Water Temp Dewpoint Dewpoint Depression Visibility Wind Speed Wind Dir Waves Ship Positions

Artvin

Last reported at 2014-Dec-16 07:24 UTC. Time now 2014-Dec-19 20:14 UTC.
Position N 55°39' E 015°34'.

Length 229 m; draft 14.4 m.

Type: Cargo ship. MMSI: 215678000.

Date/timePositionNaut miles runAvg speedWind from/ knotsBaromVisibWave heightAir tempDewpointWater temp
2014-Dec-16 07:24N 55°39' E 015°34'1313.4
2014-Dec-16 06:28N 55°33' E 015°15'1213.6
2014-Dec-16 05:33N 55°28' E 014°55'1413.6
2014-Dec-16 04:33N 55°20' E 014°34'1413.8
2014-Dec-16 03:33N 55°10' E 014°19'1312.8
2014-Dec-16 02:33N 54°60' E 014°05'6513.0
2014-Dec-15 21:34N 54°37' E 012°20'1412.5
2014-Dec-15 20:29N 54°25' E 012°09'1213.3
2014-Dec-15 19:34N 54°25' E 011°48'137 9.2
2014-Dec-15 04:33N 56°42' E 011°45'9 9.2
2014-Dec-15 03:33N 56°51' E 011°48'1211.8
2014-Dec-15 02:33N 57°03' E 011°41'1211.9
2014-Dec-15 01:34N 57°14' E 011°34'1212.4
2014-Dec-15 00:34N 57°26' E 011°26'1312.5
2014-Dec-14 23:33N 57°35' E 011°10'1312.7
2014-Dec-14 22:33N 57°43' E 010°53'1312.6
2014-Dec-14 21:33N 57°48' E 010°31'46611.8
2014-Dec-13 06:09N 59°26' W 004°03'5 8.7
2014-Dec-13 05:33N 59°23' W 004°11'8 8.1
2014-Dec-13 04:33N 59°16' W 004°21'9 8.6
2014-Dec-13 03:32N 59°11' W 004°35'46 7.6
2014-Dec-12 21:33N 58°34' W 005°27'9 7.3
2014-Dec-12 20:20N 58°26' W 005°32'6 7.2
2014-Dec-12 19:30N 58°20' W 005°36'8 7.3
2014-Dec-12 18:28N 58°13' W 005°41'7 7.6
2014-Dec-12 17:29N 58°06' W 005°47'9 8.4
2014-Dec-12 16:24N 57°58' W 005°55'  
Track history (hours):
 
Tides and Currents Weather Stations Pressure Air Temp Water Temp Dewpoint Dewpoint Depression Visibility Wind Speed Wind Dir Waves Ship Positions

Artvin

Last reported at 2014-Dec-16 07:24 UTC. Time now 2014-Dec-19 20:14 UTC.
Position N 55°39' E 015°34'.

Length 229 m; draft 14.4 m.

Type: Cargo ship. MMSI: 215678000.

Date/timePositionNaut miles runAvg speedWind from/ knotsBaromVisibWave heightAir tempDewpointWater temp
2014-Dec-16 07:24N 55°39' E 015°34'1313.4
2014-Dec-16 06:28N 55°33' E 015°15'1213.6
2014-Dec-16 05:33N 55°28' E 014°55'1413.6
2014-Dec-16 04:33N 55°20' E 014°34'1413.8
2014-Dec-16 03:33N 55°10' E 014°19'1312.8
2014-Dec-16 02:33N 54°60' E 014°05'6513.0
2014-Dec-15 21:34N 54°37' E 012°20'1412.5
2014-Dec-15 20:29N 54°25' E 012°09'1213.3
2014-Dec-15 19:34N 54°25' E 011°48'137 9.2
2014-Dec-15 04:33N 56°42' E 011°45'9 9.2
2014-Dec-15 03:33N 56°51' E 011°48'1211.8
2014-Dec-15 02:33N 57°03' E 011°41'1211.9
2014-Dec-15 01:34N 57°14' E 011°34'1212.4
2014-Dec-15 00:34N 57°26' E 011°26'1312.5
2014-Dec-14 23:33N 57°35' E 011°10'1312.7
2014-Dec-14 22:33N 57°43' E 010°53'1312.6
2014-Dec-14 21:33N 57°48' E 010°31'46611.8
2014-Dec-13 06:09N 59°26' W 004°03'5 8.7
2014-Dec-13 05:33N 59°23' W 004°11'8 8.1
2014-Dec-13 04:33N 59°16' W 004°21'9 8.6
2014-Dec-13 03:32N 59°11' W 004°35'46 7.6
2014-Dec-12 21:33N 58°34' W 005°27'9 7.3
2014-Dec-12 20:20N 58°26' W 005°32'6 7.2
2014-Dec-12 19:30N 58°20' W 005°36'8 7.3
2014-Dec-12 18:28N 58°13' W 005°41'7 7.6
2014-Dec-12 17:29N 58°06' W 005°47'9 8.4
2014-Dec-12 16:24N 57°58' W 005°55'  

Dump ship's entire track history